sensor_id;sensor_type;location;lat;lon;timestamp;pressure;altitude;pressure_sealevel;temperature;humidity
5284;BME280;15377;48.540;9.268;2023-08-06T00:01:24;96687.09;;;14.84;100.00
5284;BME280;15377;48.540;9.268;2023-08-06T00:03:50;96677.44;;;14.91;100.00
5284;BME280;15377;48.540;9.268;2023-08-06T00:06:16;96672.19;;;14.87;100.00
5284;BME280;15377;48.540;9.268;2023-08-06T00:08:41;96678.56;;;14.77;100.00
5284;BME280;15377;48.540;9.268;2023-08-06T00:11:07;96688.91;;;14.77;100.00
5284;BME280;15377;48.540;9.268;2023-08-06T00:13:32;96682.06;;;14.54;100.00
5284;BME280;15377;48.540;9.268;2023-08-06T00:16:13;96685.22;;;14.69;100.00
5284;BME280;15377;48.540;9.268;2023-08-06T00:18:39;96686.72;;;14.70;100.00
5284;BME280;15377;48.540;9.268;2023-08-06T00:21:05;96655.75;;;14.36;100.00
5284;BME280;15377;48.540;9.268;2023-08-06T00:23:30;96672.72;;;14.22;100.00
5284;BME280;15377;48.540;9.268;2023-08-06T00:25:56;96671.69;;;14.25;100.00
5284;BME280;15377;48.540;9.268;2023-08-06T00:28:21;96673.13;;;14.37;100.00
5284;BME280;15377;48.540;9.268;2023-08-06T00:30:53;96662.56;;;14.35;100.00
5284;BME280;15377;48.540;9.268;2023-08-06T00:33:18;96658.25;;;14.40;100.00
5284;BME280;15377;48.540;9.268;2023-08-06T00:35:43;96668.13;;;14.30;100.00
5284;BME280;15377;48.540;9.268;2023-08-06T00:38:09;96658.84;;;14.27;100.00
5284;BME280;15377;48.540;9.268;2023-08-06T00:40:34;96676.50;;;14.19;100.00
5284;BME280;15377;48.540;9.268;2023-08-06T00:42:59;96668.44;;;14.21;100.00
5284;BME280;15377;48.540;9.268;2023-08-06T00:45:25;96656.63;;;14.15;100.00
5284;BME280;15377;48.540;9.268;2023-08-06T00:47:51;96661.38;;;14.20;100.00
5284;BME280;15377;48.540;9.268;2023-08-06T00:50:17;96668.44;;;14.21;100.00
5284;BME280;15377;48.540;9.268;2023-08-06T00:52:42;96662.22;;;14.04;100.00
5284;BME280;15377;48.540;9.268;2023-08-06T00:55:08;96654.88;;;14.12;100.00
5284;BME280;15377;48.540;9.268;2023-08-06T00:57:35;96648.91;;;14.02;100.00
5284;BME280;15377;48.540;9.268;2023-08-06T01:00:00;96652.31;;;13.79;100.00
5284;BME280;15377;48.540;9.268;2023-08-06T01:02:26;96648.88;;;13.62;100.00
5284;BME280;15377;48.540;9.268;2023-08-06T01:04:51;96658.56;;;13.85;100.00
5284;BME280;15377;48.540;9.268;2023-08-06T01:10:23;96663.38;;;13.79;100.00
5284;BME280;15377;48.540;9.268;2023-08-06T01:13:02;96652.91;;;13.61;100.00
5284;BME280;15377;48.540;9.268;2023-08-06T01:15:46;96648.44;;;13.47;100.00
5284;BME280;15377;48.540;9.268;2023-08-06T01:18:12;96650.50;;;13.30;100.00
5284;BME280;15377;48.540;9.268;2023-08-06T01:20:38;96665.97;;;13.66;100.00
5284;BME280;15377;48.540;9.268;2023-08-06T01:23:03;96646.66;;;13.49;100.00
5284;BME280;15377;48.540;9.268;2023-08-06T01:25:34;96659.47;;;13.58;100.00
5284;BME280;15377;48.540;9.268;2023-08-06T01:28:18;96660.00;;;13.51;100.00
5284;BME280;15377;48.540;9.268;2023-08-06T01:30:48;96659.03;;;13.32;100.00
5284;BME280;15377;48.540;9.268;2023-08-06T01:33:19;96665.63;;;13.07;100.00
5284;BME280;15377;48.540;9.268;2023-08-06T01:35:48;96656.88;;;13.03;100.00
5284;BME280;15377;48.540;9.268;2023-08-06T01:38:14;96652.06;;;13.09;100.00
5284;BME280;15377;48.540;9.268;2023-08-06T01:40:40;96649.06;;;12.85;100.00
5284;BME280;15377;48.540;9.268;2023-08-06T01:43:05;96648.59;;;12.86;100.00
5284;BME280;15377;48.540;9.268;2023-08-06T01:45:31;96626.25;;;12.95;100.00
5284;BME280;15377;48.540;9.268;2023-08-06T01:47:56;96641.28;;;13.05;100.00
5284;BME280;15377;48.540;9.268;2023-08-06T01:50:21;96650.13;;;12.98;100.00
5284;BME280;15377;48.540;9.268;2023-08-06T01:52:47;96634.28;;;12.82;100.00
5284;BME280;15377;48.540;9.268;2023-08-06T01:55:12;96632.56;;;12.68;100.00
5284;BME280;15377;48.540;9.268;2023-08-06T01:57:37;96627.03;;;12.52;100.00
5284;BME280;15377;48.540;9.268;2023-08-06T02:00:03;96632.28;;;12.61;100.00
5284;BME280;15377;48.540;9.268;2023-08-06T02:02:28;96617.72;;;12.71;100.00
5284;BME280;15377;48.540;9.268;2023-08-06T02:04:54;96598.41;;;12.77;100.00
5284;BME280;15377;48.540;9.268;2023-08-06T02:07:19;96614.47;;;12.62;100.00
5284;BME280;15377;48.540;9.268;2023-08-06T02:09:44;96614.50;;;12.51;100.00
5284;BME280;15377;48.540;9.268;2023-08-06T02:12:10;96597.19;;;12.23;100.00
5284;BME280;15377;48.540;9.268;2023-08-06T02:14:35;96577.38;;;11.97;100.00
5284;BME280;15377;48.540;9.268;2023-08-06T02:17:00;96586.19;;;12.01;100.00
5284;BME280;15377;48.540;9.268;2023-08-06T02:19:26;96588.44;;;12.08;100.00
5284;BME280;15377;48.540;9.268;2023-08-06T02:21:51;96595.19;;;12.34;100.00
5284;BME280;15377;48.540;9.268;2023-08-06T02:24:16;96585.41;;;12.39;100.00
5284;BME280;15377;48.540;9.268;2023-08-06T02:26:42;96589.44;;;12.49;100.00
5284;BME280;15377;48.540;9.268;2023-08-06T02:29:07;96589.91;;;12.64;100.00
5284;BME280;15377;48.540;9.268;2023-08-06T02:31:32;96578.59;;;12.62;100.00
5284;BME280;15377;48.540;9.268;2023-08-06T02:33:58;96572.53;;;12.74;100.00
5284;BME280;15377;48.540;9.268;2023-08-06T02:36:24;96561.81;;;12.49;100.00
5284;BME280;15377;48.540;9.268;2023-08-06T02:38:49;96579.88;;;12.55;100.00
5284;BME280;15377;48.540;9.268;2023-08-06T02:41:15;96585.88;;;12.54;100.00
5284;BME280;15377;48.540;9.268;2023-08-06T02:43:40;96585.88;;;12.54;100.00
5284;BME280;15377;48.540;9.268;2023-08-06T02:46:05;96574.63;;;12.46;100.00
5284;BME280;15377;48.540;9.268;2023-08-06T02:48:30;96574.13;;;12.31;100.00
5284;BME280;15377;48.540;9.268;2023-08-06T02:50:59;96568.63;;;12.04;100.00
5284;BME280;15377;48.540;9.268;2023-08-06T02:53:25;96555.84;;;12.01;100.00
5284;BME280;15377;48.540;9.268;2023-08-06T02:55:50;96569.88;;;12.25;100.00
5284;BME280;15377;48.540;9.268;2023-08-06T02:58:16;96561.84;;;12.27;100.00
5284;BME280;15377;48.540;9.268;2023-08-06T03:00:43;96565.09;;;12.36;100.00
5284;BME280;15377;48.540;9.268;2023-08-06T03:03:09;96554.03;;;12.47;100.00
5284;BME280;15377;48.540;9.268;2023-08-06T03:05:34;96527.22;;;12.48;100.00
5284;BME280;15377;48.540;9.268;2023-08-06T03:07:59;96533.97;;;12.52;100.00
5284;BME280;15377;48.540;9.268;2023-08-06T03:10:25;96549.28;;;12.37;100.00
5284;BME280;15377;48.540;9.268;2023-08-06T03:12:50;96525.75;;;12.25;100.00
5284;BME280;15377;48.540;9.268;2023-08-06T03:15:16;96523.22;;;12.27;100.00
5284;BME280;15377;48.540;9.268;2023-08-06T03:17:41;96529.47;;;12.38;100.00
5284;BME280;15377;48.540;9.268;2023-08-06T03:20:07;96538.72;;;12.52;100.00
5284;BME280;15377;48.540;9.268;2023-08-06T03:22:32;96529.72;;;12.46;100.00
5284;BME280;15377;48.540;9.268;2023-08-06T03:24:58;96515.41;;;12.47;100.00
5284;BME280;15377;48.540;9.268;2023-08-06T03:27:23;96528.16;;;12.67;100.00
5284;BME280;15377;48.540;9.268;2023-08-06T03:29:49;96520.13;;;12.69;100.00
5284;BME280;15377;48.540;9.268;2023-08-06T03:32:18;96537.63;;;12.88;100.00
5284;BME280;15377;48.540;9.268;2023-08-06T03:34:43;96523.03;;;12.93;100.00
5284;BME280;15377;48.540;9.268;2023-08-06T03:37:09;96530.59;;;12.98;100.00
5284;BME280;15377;48.540;9.268;2023-08-06T03:39:34;96520.78;;;13.02;100.00
5284;BME280;15377;48.540;9.268;2023-08-06T03:41:59;96521.00;;;13.10;100.00
5284;BME280;15377;48.540;9.268;2023-08-06T03:44:25;96522.22;;;13.20;100.00
5284;BME280;15377;48.540;9.268;2023-08-06T03:46:52;96535.97;;;13.31;100.00
5284;BME280;15377;48.540;9.268;2023-08-06T03:49:17;96532.44;;;13.36;100.00
5284;BME280;15377;48.540;9.268;2023-08-06T03:51:42;96541.91;;;13.46;100.00
5284;BME280;15377;48.540;9.268;2023-08-06T03:54:08;96548.91;;;13.52;100.00
5284;BME280;15377;48.540;9.268;2023-08-06T03:56:33;96544.38;;;13.55;100.00
5284;BME280;15377;48.540;9.268;2023-08-06T03:58:58;96541.34;;;13.58;100.00
5284;BME280;15377;48.540;9.268;2023-08-06T04:01:24;96551.56;;;13.69;100.00
5284;BME280;15377;48.540;9.268;2023-08-06T04:03:49;96551.25;;;13.78;100.00
5284;BME280;15377;48.540;9.268;2023-08-06T04:06:14;96553.97;;;13.89;100.00
5284;BME280;15377;48.540;9.268;2023-08-06T04:08:40;96544.41;;;13.90;100.00
5284;BME280;15377;48.540;9.268;2023-08-06T04:11:05;96557.91;;;13.99;100.00
5284;BME280;15377;48.540;9.268;2023-08-06T04:13:30;96560.44;;;13.97;100.00
5284;BME280;15377;48.540;9.268;2023-08-06T04:16:00;96562.59;;;14.09;100.00
5284;BME280;15377;48.540;9.268;2023-08-06T04:18:26;96538.50;;;14.04;100.00
5284;BME280;15377;48.540;9.268;2023-08-06T04:20:51;96555.53;;;14.14;100.00
5284;BME280;15377;48.540;9.268;2023-08-06T04:23:17;96551.72;;;14.17;100.00
5284;BME280;15377;48.540;9.268;2023-08-06T04:25:43;96554.03;;;14.13;100.00
5284;BME280;15377;48.540;9.268;2023-08-06T04:28:08;96554.03;;;14.13;100.00
5284;BME280;15377;48.540;9.268;2023-08-06T04:30:33;96555.41;;;13.95;100.00
5284;BME280;15377;48.540;9.268;2023-08-06T04:32:59;96557.97;;;13.88;100.00
5284;BME280;15377;48.540;9.268;2023-08-06T04:35:24;96543.91;;;13.86;100.00
5284;BME280;15377;48.540;9.268;2023-08-06T04:37:50;96556.16;;;13.96;100.00
5284;BME280;15377;48.540;9.268;2023-08-06T04:40:15;96559.72;;;13.91;100.00
5284;BME280;15377;48.540;9.268;2023-08-06T04:42:40;96541.88;;;13.92;100.00
5284;BME280;15377;48.540;9.268;2023-08-06T04:45:06;96531.13;;;13.83;100.00
5284;BME280;15377;48.540;9.268;2023-08-06T04:47:32;96512.88;;;13.69;100.00
5284;BME280;15377;48.540;9.268;2023-08-06T04:49:57;96557.09;;;14.04;100.00
5284;BME280;15377;48.540;9.268;2023-08-06T04:52:22;96566.66;;;14.03;100.00
5284;BME280;15377;48.540;9.268;2023-08-06T04:54:48;96550.88;;;13.98;100.00
5284;BME280;15377;48.540;9.268;2023-08-06T04:57:13;96525.09;;;13.79;100.00
5284;BME280;15377;48.540;9.268;2023-08-06T04:59:39;96552.88;;;13.97;100.00
5284;BME280;15377;48.540;9.268;2023-08-06T05:02:04;96558.69;;;13.94;100.00
5284;BME280;15377;48.540;9.268;2023-08-06T05:04:30;96564.22;;;13.94;100.00
5284;BME280;15377;48.540;9.268;2023-08-06T05:06:55;96556.72;;;13.89;100.00
5284;BME280;15377;48.540;9.268;2023-08-06T05:09:20;96561.00;;;13.90;100.00
5284;BME280;15377;48.540;9.268;2023-08-06T05:11:49;96556.25;;;13.85;100.00
5284;BME280;15377;48.540;9.268;2023-08-06T05:14:14;96555.78;;;13.81;100.00
5284;BME280;15377;48.540;9.268;2023-08-06T05:16:40;96564.31;;;13.83;100.00
5284;BME280;15377;48.540;9.268;2023-08-06T05:19:05;96566.53;;;13.90;100.00
5284;BME280;15377;48.540;9.268;2023-08-06T05:21:30;96528.19;;;13.70;100.00
5284;BME280;15377;48.540;9.268;2023-08-06T05:23:56;96550.63;;;13.96;100.00
5284;BME280;15377;48.540;9.268;2023-08-06T05:26:21;96543.53;;;14.06;100.00
5284;BME280;15377;48.540;9.268;2023-08-06T05:28:46;96562.47;;;14.26;100.00
5284;BME280;15377;48.540;9.268;2023-08-06T05:31:12;96553.84;;;14.35;100.00
5284;BME280;15377;48.540;9.268;2023-08-06T05:33:37;96550.97;;;14.22;100.00
5284;BME280;15377;48.540;9.268;2023-08-06T05:36:03;96546.44;;;14.19;100.00
5284;BME280;15377;48.540;9.268;2023-08-06T05:38:29;96570.16;;;14.38;100.00
5284;BME280;15377;48.540;9.268;2023-08-06T05:40:55;96561.53;;;14.47;100.00
5284;BME280;15377;48.540;9.268;2023-08-06T05:43:21;96585.63;;;14.81;100.00
5284;BME280;15377;48.540;9.268;2023-08-06T05:45:49;96552.94;;;14.74;100.00
5284;BME280;15377;48.540;9.268;2023-08-06T05:48:15;96562.72;;;14.81;100.00
5284;BME280;15377;48.540;9.268;2023-08-06T05:50:40;96580.06;;;14.81;100.00
5284;BME280;15377;48.540;9.268;2023-08-06T05:53:06;96589.09;;;14.87;100.00
5284;BME280;15377;48.540;9.268;2023-08-06T05:55:31;96598.09;;;14.93;100.00
5284;BME280;15377;48.540;9.268;2023-08-06T05:57:58;96594.63;;;14.87;100.00
5284;BME280;15377;48.540;9.268;2023-08-06T06:00:23;96609.97;;;14.88;100.00
5284;BME280;15377;48.540;9.268;2023-08-06T06:02:49;96602.19;;;14.87;100.00
5284;BME280;15377;48.540;9.268;2023-08-06T06:05:14;96602.22;;;14.81;100.00
5284;BME280;15377;48.540;9.268;2023-08-06T06:07:39;96615.56;;;14.83;100.00
5284;BME280;15377;48.540;9.268;2023-08-06T06:10:05;96605.34;;;14.73;100.00
5284;BME280;15377;48.540;9.268;2023-08-06T06:12:31;96625.44;;;14.78;100.00
5284;BME280;15377;48.540;9.268;2023-08-06T06:14:56;96624.50;;;14.71;100.00
5284;BME280;15377;48.540;9.268;2023-08-06T06:17:21;96632.38;;;14.61;100.00
5284;BME280;15377;48.540;9.268;2023-08-06T06:19:47;96633.75;;;14.78;100.00
5284;BME280;15377;48.540;9.268;2023-08-06T06:22:13;96621.97;;;14.73;100.00
5284;BME280;15377;48.540;9.268;2023-08-06T06:24:39;96640.28;;;14.81;100.00
5284;BME280;15377;48.540;9.268;2023-08-06T06:27:04;96641.50;;;14.85;100.00
5284;BME280;15377;48.540;9.268;2023-08-06T06:29:30;96630.41;;;14.85;100.00
5284;BME280;15377;48.540;9.268;2023-08-06T06:31:55;96647.84;;;15.04;100.00
5284;BME280;15377;48.540;9.268;2023-08-06T06:34:20;96646.84;;;15.26;100.00
5284;BME280;15377;48.540;9.268;2023-08-06T06:36:46;96647.63;;;15.26;100.00
5284;BME280;15377;48.540;9.268;2023-08-06T06:39:11;96642.00;;;15.08;100.00
5284;BME280;15377;48.540;9.268;2023-08-06T06:41:37;96644.72;;;15.13;100.00
5284;BME280;15377;48.540;9.268;2023-08-06T06:44:02;96647.31;;;15.06;100.00
5284;BME280;15377;48.540;9.268;2023-08-06T06:46:27;96628.69;;;15.06;100.00
5284;BME280;15377;48.540;9.268;2023-08-06T06:48:53;96650.44;;;15.21;100.00
5284;BME280;15377;48.540;9.268;2023-08-06T06:51:18;96641.28;;;15.07;100.00
5284;BME280;15377;48.540;9.268;2023-08-06T06:53:43;96642.00;;;15.08;100.00
5284;BME280;15377;48.540;9.268;2023-08-06T06:56:09;96651.84;;;15.33;100.00
5284;BME280;15377;48.540;9.268;2023-08-06T06:58:34;96658.56;;;15.43;100.00
5284;BME280;15377;48.540;9.268;2023-08-06T07:01:00;96655.25;;;15.44;100.00
5284;BME280;15377;48.540;9.268;2023-08-06T07:03:25;96655.16;;;15.31;100.00
5284;BME280;15377;48.540;9.268;2023-08-06T07:05:50;96644.28;;;15.33;100.00
5284;BME280;15377;48.540;9.268;2023-08-06T07:08:16;96658.94;;;15.52;100.00
5284;BME280;15377;48.540;9.268;2023-08-06T07:10:42;96656.41;;;15.54;100.00
5284;BME280;15377;48.540;9.268;2023-08-06T07:13:08;96655.50;;;15.65;100.00
5284;BME280;15377;48.540;9.268;2023-08-06T07:15:34;96628.97;;;15.69;100.00
5284;BME280;15377;48.540;9.268;2023-08-06T07:17:59;96657.84;;;15.98;100.00
5284;BME280;15377;48.540;9.268;2023-08-06T07:20:24;96662.63;;;16.16;100.00
5284;BME280;15377;48.540;9.268;2023-08-06T07:22:50;96654.75;;;16.38;100.00
5284;BME280;15377;48.540;9.268;2023-08-06T07:25:16;96661.34;;;16.35;100.00
5284;BME280;15377;48.540;9.268;2023-08-06T07:27:41;96671.09;;;16.23;100.00
5284;BME280;15377;48.540;9.268;2023-08-06T07:30:07;96682.06;;;16.34;100.00
5284;BME280;15377;48.540;9.268;2023-08-06T07:32:33;96667.97;;;15.95;100.00
5284;BME280;15377;48.540;9.268;2023-08-06T07:34:58;96678.91;;;15.88;100.00
5284;BME280;15377;48.540;9.268;2023-08-06T07:37:28;96672.91;;;15.65;100.00
5284;BME280;15377;48.540;9.268;2023-08-06T07:39:54;96665.97;;;15.53;100.00
5284;BME280;15377;48.540;9.268;2023-08-06T07:42:20;96645.63;;;15.21;100.00
5284;BME280;15377;48.540;9.268;2023-08-06T07:44:51;96671.56;;;15.24;100.00
5284;BME280;15377;48.540;9.268;2023-08-06T07:47:17;96672.13;;;15.22;100.00
5284;BME280;15377;48.540;9.268;2023-08-06T07:49:43;96664.94;;;15.08;100.00
5284;BME280;15377;48.540;9.268;2023-08-06T07:52:08;96656.41;;;15.06;100.00
5284;BME280;15377;48.540;9.268;2023-08-06T07:54:33;96673.31;;;15.03;100.00
5284;BME280;15377;48.540;9.268;2023-08-06T07:56:59;96654.53;;;14.90;100.00
5284;BME280;15377;48.540;9.268;2023-08-06T07:59:24;96663.19;;;15.05;100.00
5284;BME280;15377;48.540;9.268;2023-08-06T08:01:51;96662.16;;;15.08;100.00
5284;BME280;15377;48.540;9.268;2023-08-06T08:04:16;96679.09;;;15.29;100.00
5284;BME280;15377;48.540;9.268;2023-08-06T08:06:41;96677.59;;;15.28;100.00
5284;BME280;15377;48.540;9.268;2023-08-06T08:09:07;96657.94;;;15.26;100.00
5284;BME280;15377;48.540;9.268;2023-08-06T08:11:32;96655.41;;;15.28;100.00
5284;BME280;15377;48.540;9.268;2023-08-06T08:13:58;96665.13;;;15.40;100.00
5284;BME280;15377;48.540;9.268;2023-08-06T08:16:23;96669.44;;;15.59;100.00
5284;BME280;15377;48.540;9.268;2023-08-06T08:18:48;96655.13;;;15.55;100.00
5284;BME280;15377;48.540;9.268;2023-08-06T08:21:14;96661.22;;;15.72;100.00
5284;BME280;15377;48.540;9.268;2023-08-06T08:23:39;96670.66;;;15.82;100.00
5284;BME280;15377;48.540;9.268;2023-08-06T08:26:06;96680.72;;;15.85;100.00
5284;BME280;15377;48.540;9.268;2023-08-06T08:28:32;96678.06;;;15.74;100.00
5284;BME280;15377;48.540;9.268;2023-08-06T08:30:57;96675.44;;;15.63;100.00
5284;BME280;15377;48.540;9.268;2023-08-06T08:33:23;96686.66;;;15.52;100.00
5284;BME280;15377;48.540;9.268;2023-08-06T08:35:48;96676.03;;;15.08;100.00
5284;BME280;15377;48.540;9.268;2023-08-06T08:38:13;96681.16;;;15.23;100.00
5284;BME280;15377;48.540;9.268;2023-08-06T08:40:46;96677.78;;;15.35;100.00
5284;BME280;15377;48.540;9.268;2023-08-06T08:43:15;96679.59;;;15.51;100.00
5284;BME280;15377;48.540;9.268;2023-08-06T08:45:42;96663.34;;;15.42;100.00
5284;BME280;15377;48.540;9.268;2023-08-06T08:48:09;96673.25;;;15.56;100.00
5284;BME280;15377;48.540;9.268;2023-08-06T08:50:37;96676.13;;;15.69;100.00
5284;BME280;15377;48.540;9.268;2023-08-06T08:53:02;96665.72;;;15.75;100.00
5284;BME280;15377;48.540;9.268;2023-08-06T08:55:28;96685.66;;;15.92;100.00
5284;BME280;15377;48.540;9.268;2023-08-06T08:57:54;96681.63;;;15.93;100.00
5284;BME280;15377;48.540;9.268;2023-08-06T09:00:19;96688.34;;;16.16;100.00
5284;BME280;15377;48.540;9.268;2023-08-06T09:02:45;96674.56;;;16.11;100.00
5284;BME280;15377;48.540;9.268;2023-08-06T09:05:12;96688.81;;;16.20;100.00
5284;BME280;15377;48.540;9.268;2023-08-06T09:07:42;96695.78;;;16.08;100.00
5284;BME280;15377;48.540;9.268;2023-08-06T09:10:10;96695.94;;;15.97;100.00
5284;BME280;15377;48.540;9.268;2023-08-06T09:12:36;96707.13;;;15.92;100.00
5284;BME280;15377;48.540;9.268;2023-08-06T09:15:02;96703.38;;;15.89;100.00
5284;BME280;15377;48.540;9.268;2023-08-06T09:17:28;96691.91;;;15.56;100.00
5284;BME280;15377;48.540;9.268;2023-08-06T09:19:54;96719.56;;;15.85;100.00
5284;BME280;15377;48.540;9.268;2023-08-06T09:22:19;96703.50;;;15.78;100.00
5284;BME280;15377;48.540;9.268;2023-08-06T09:24:45;96712.50;;;15.84;100.00
5284;BME280;15377;48.540;9.268;2023-08-06T09:27:11;96708.22;;;15.83;100.00
5284;BME280;15377;48.540;9.268;2023-08-06T09:29:41;96702.16;;;15.85;100.00
5284;BME280;15377;48.540;9.268;2023-08-06T09:32:07;96710.22;;;16.25;100.00
5284;BME280;15377;48.540;9.268;2023-08-06T09:34:32;96707.97;;;16.74;100.00
5284;BME280;15377;48.540;9.268;2023-08-06T09:36:57;96713.38;;;16.85;100.00
5284;BME280;15377;48.540;9.268;2023-08-06T09:39:30;96705.09;;;16.79;100.00
5284;BME280;15377;48.540;9.268;2023-08-06T09:42:00;96718.41;;;16.55;100.00
5284;BME280;15377;48.540;9.268;2023-08-06T09:44:31;96706.06;;;16.69;100.00
5284;BME280;15377;48.540;9.268;2023-08-06T09:46:59;96705.56;;;16.83;100.00
5284;BME280;15377;48.540;9.268;2023-08-06T09:49:40;96716.22;;;16.79;100.00
5284;BME280;15377;48.540;9.268;2023-08-06T09:52:11;96721.75;;;16.66;100.00
5284;BME280;15377;48.540;9.268;2023-08-06T09:54:37;96716.09;;;16.72;100.00
5284;BME280;15377;48.540;9.268;2023-08-06T09:57:03;96717.88;;;16.19;100.00
5284;BME280;15377;48.540;9.268;2023-08-06T09:59:29;96731.88;;;16.08;100.00
5284;BME280;15377;48.540;9.268;2023-08-06T10:01:56;96720.38;;;15.80;100.00
5284;BME280;15377;48.540;9.268;2023-08-06T10:04:21;96724.50;;;15.92;100.00
5284;BME280;15377;48.540;9.268;2023-08-06T10:06:47;96725.19;;;15.56;100.00
5284;BME280;15377;48.540;9.268;2023-08-06T10:09:13;96733.78;;;15.52;100.00
5284;BME280;15377;48.540;9.268;2023-08-06T10:11:39;96734.28;;;15.56;100.00
5284;BME280;15377;48.540;9.268;2023-08-06T10:14:18;96724.44;;;15.55;100.00
5284;BME280;15377;48.540;9.268;2023-08-06T10:16:45;96720.84;;;15.36;100.00
5284;BME280;15377;48.540;9.268;2023-08-06T10:19:12;96710.09;;;15.27;100.00
5284;BME280;15377;48.540;9.268;2023-08-06T10:21:39;96714.34;;;15.04;100.00
5284;BME280;15377;48.540;9.268;2023-08-06T10:24:07;96718.59;;;15.05;100.00
5284;BME280;15377;48.540;9.268;2023-08-06T10:26:35;96689.75;;;14.95;100.00
5284;BME280;15377;48.540;9.268;2023-08-06T10:29:00;96707.69;;;14.89;100.00
5284;BME280;15377;48.540;9.268;2023-08-06T10:31:54;96703.72;;;15.08;100.00
5284;BME280;15377;48.540;9.268;2023-08-06T10:34:22;96698.19;;;15.08;100.00
5284;BME280;15377;48.540;9.268;2023-08-06T10:36:47;96709.53;;;15.34;100.00
5284;BME280;15377;48.540;9.268;2023-08-06T10:39:13;96699.94;;;15.35;100.00
5284;BME280;15377;48.540;9.268;2023-08-06T10:41:42;96716.34;;;15.57;100.00
5284;BME280;15377;48.540;9.268;2023-08-06T10:44:09;96730.91;;;15.63;100.00
5284;BME280;15377;48.540;9.268;2023-08-06T10:46:35;96730.34;;;15.70;100.00
5284;BME280;15377;48.540;9.268;2023-08-06T10:49:01;96726.34;;;15.66;100.00
5284;BME280;15377;48.540;9.268;2023-08-06T10:51:27;96725.38;;;15.63;100.00
5284;BME280;15377;48.540;9.268;2023-08-06T10:53:53;96728.22;;;15.58;100.00
5284;BME280;15377;48.540;9.268;2023-08-06T10:56:22;96723.97;;;15.51;100.00
5284;BME280;15377;48.540;9.268;2023-08-06T10:58:49;96729.47;;;15.33;100.00
5284;BME280;15377;48.540;9.268;2023-08-06T11:01:15;96728.72;;;15.32;100.00
5284;BME280;15377;48.540;9.268;2023-08-06T11:03:46;96722.22;;;15.24;100.00
5284;BME280;15377;48.540;9.268;2023-08-06T11:06:17;96721.75;;;15.20;100.00
5284;BME280;15377;48.540;9.268;2023-08-06T11:08:47;96739.41;;;15.17;100.00
5284;BME280;15377;48.540;9.268;2023-08-06T11:11:15;96726.28;;;15.23;100.00
5284;BME280;15377;48.540;9.268;2023-08-06T11:13:48;96735.66;;;15.44;100.00
5284;BME280;15377;48.540;9.268;2023-08-06T11:16:18;96745.94;;;15.49;100.00
5284;BME280;15377;48.540;9.268;2023-08-06T11:18:44;96746.06;;;15.62;100.00
5284;BME280;15377;48.540;9.268;2023-08-06T11:21:10;96755.06;;;15.44;100.00
5284;BME280;15377;48.540;9.268;2023-08-06T11:23:37;96761.16;;;15.37;100.00
5284;BME280;15377;48.540;9.268;2023-08-06T11:26:02;96760.25;;;15.24;100.00
5284;BME280;15377;48.540;9.268;2023-08-06T11:28:28;96751.72;;;15.22;100.00
5284;BME280;15377;48.540;9.268;2023-08-06T11:30:53;96761.75;;;15.30;100.00
5284;BME280;15377;48.540;9.268;2023-08-06T11:33:27;96771.34;;;15.53;100.00
5284;BME280;15377;48.540;9.268;2023-08-06T11:35:54;96766.50;;;15.59;100.00
5284;BME280;15377;48.540;9.268;2023-08-06T11:38:20;96763.16;;;15.42;100.00
5284;BME280;15377;48.540;9.268;2023-08-06T11:40:47;96786.38;;;15.04;100.00
5284;BME280;15377;48.540;9.268;2023-08-06T11:43:13;96781.94;;;14.90;100.00
5284;BME280;15377;48.540;9.268;2023-08-06T11:45:39;96782.34;;;15.05;100.00
5284;BME280;15377;48.540;9.268;2023-08-06T11:48:05;96781.56;;;15.10;100.00
5284;BME280;15377;48.540;9.268;2023-08-06T11:50:30;96756.38;;;15.08;100.00
5284;BME280;15377;48.540;9.268;2023-08-06T11:52:57;96752.84;;;15.37;100.00
5284;BME280;15377;48.540;9.268;2023-08-06T11:55:24;96783.34;;;15.37;100.00
5284;BME280;15377;48.540;9.268;2023-08-06T11:57:50;96770.38;;;15.51;100.00
5284;BME280;15377;48.540;9.268;2023-08-06T12:00:15;96784.63;;;15.36;100.00
5284;BME280;15377;48.540;9.268;2023-08-06T12:02:45;96792.78;;;15.23;100.00
5284;BME280;15377;48.540;9.268;2023-08-06T12:05:12;96803.59;;;15.27;100.00
5284;BME280;15377;48.540;9.268;2023-08-06T12:07:43;96794.81;;;15.52;100.00
5284;BME280;15377;48.540;9.268;2023-08-06T12:10:09;96786.38;;;15.63;100.00
5284;BME280;15377;48.540;9.268;2023-08-06T12:12:35;96791.00;;;15.55;100.00
5284;BME280;15377;48.540;9.268;2023-08-06T12:15:01;96797.34;;;15.50;100.00
5284;BME280;15377;48.540;9.268;2023-08-06T12:17:27;96800.13;;;15.50;100.00
5284;BME280;15377;48.540;9.268;2023-08-06T12:19:52;96805.91;;;15.52;100.00
5284;BME280;15377;48.540;9.268;2023-08-06T12:22:18;96812.88;;;15.29;100.00
5284;BME280;15377;48.540;9.268;2023-08-06T12:24:45;96809.59;;;15.01;100.00
5284;BME280;15377;48.540;9.268;2023-08-06T12:27:11;96830.09;;;15.22;100.00
5284;BME280;15377;48.540;9.268;2023-08-06T12:29:45;96832.75;;;15.04;100.00
5284;BME280;15377;48.540;9.268;2023-08-06T12:32:11;96847.03;;;15.13;100.00
5284;BME280;15377;48.540;9.268;2023-08-06T12:34:40;96865.72;;;15.07;100.00
5284;BME280;15377;48.540;9.268;2023-08-06T12:37:06;96857.56;;;15.20;100.00
5284;BME280;15377;48.540;9.268;2023-08-06T12:39:37;96883.63;;;15.06;100.00
5284;BME280;15377;48.540;9.268;2023-08-06T12:42:04;96868.00;;;15.03;100.00
5284;BME280;15377;48.540;9.268;2023-08-06T12:44:30;96851.66;;;15.00;100.00
5284;BME280;15377;48.540;9.268;2023-08-06T12:46:55;96867.09;;;15.30;100.00
5284;BME280;15377;48.540;9.268;2023-08-06T12:49:20;96879.28;;;15.51;100.00
5284;BME280;15377;48.540;9.268;2023-08-06T12:51:47;96883.41;;;15.39;100.00
5284;BME280;15377;48.540;9.268;2023-08-06T12:54:12;96891.97;;;15.41;100.00
5284;BME280;15377;48.540;9.268;2023-08-06T12:56:38;96875.41;;;15.30;100.00
5284;BME280;15377;48.540;9.268;2023-08-06T12:59:03;96883.00;;;15.59;100.00